Portada
METAR-TAF:

METAR-TAF

Aeropuertos :

Aeropuerto de Melilla

Melilla, España

latitud: 35-17N, longitud: 002-57W, altitud: 47 m

Observación

El informe se hizo hace 33 minutos, a las 07:00 UTC
Viento 3 kt del noroeste
Temperatura 25°C
Humedad 41%
Presión 1014 hPa
Visibilidad 10 km o más
sin nubes por debajo de 1500 m y sin presencia de cumulonimbus.

METAR: GEML 140700Z 32003KT CAVOK 25/11 Q1014

Hora: 09:33 (07:33 UTC)

Pronóstico

El informe se hizo hace 5 horas y 33 minutos, a las 02:00 UTC
Pronóstico válido del 14 a las 03 UTC al 15 a las 03 UTC
Viento 3 kt con dirección variable
Visibilidad 10 km o más
sin nubes por debajo de 1500 m y sin presencia de cumulonimbus.
Evolucionando progresivamente
del 14 a las 08 UTC al 14 a las 11 UTC
Viento 10 kt del oeste

TAF: GEML 140200Z 1403/1503 VRB03KT CAVOK TX30/1413Z TN23/1406Z BECMG 1408/1411 28010KT

Observaciones y pronósticos meteorológicos de más de 4000 aeropuertos (mensajes METAR y TAF).

Los puntos amarillos y rojos representan las estaciones disponibles.

Ponga el ratón en el punto deseado para ver el nombre de la estación.

Haga clic para ver las observaciones y los pronósticos meteorológicos.

Para cambiar el mapa : haga clic en los botones verdes con una cruz de color negro para hacer un zoom, en el botón verde con un guión para alejar o en las flechas verdes para mapas adyacentes.


METAR-TAF: